Monday, 10 May 2010

A proper TAF

Now this is what I call a proper TAF

TAF EGDL 101618Z 1018/1112 04009KT 9999 BKN045=

ah...normal service is on the way back

TAF EGDL 101919Z 1021/1115 06010KT 9999 SCT030 TEMPO 1111/1115 7000 SHRA=

No comments: